»·PEaware :: DAL1488 KOAK-KSLC

DAL1488 :: KOAK-KSLC

FLIGHT INFORMATION

Flight Status: Arrived
Operator:
Delta Air Lines
More flights by this operator :: More flights under this callsign
Pilot: Austin W. (7615)
Aircraft: AIRBUS A320
(A320)
More flights by this aircraft type
Origin: KOAK Metro Oakland Intl
United States
Destination: KSLC Salt Lake City Intl
United States
More flights between these airports :: More routes between these airports
Route: OAK5 MOGEE Q124 BVL WAATS5
File this flight plan on PilotEdge
Remarks:
Altitude:
(Current/Filed)
37,000ft
Speed:
(Current/Filed)
450kts
Departed: 22-Nov-20 08:20 PM
Arrived: 22-Nov-20 09:39 PM
Distance/Time
Traveled:
510nm/1:18
Distance/Time
To Go:
Arrived

Flight Plot

Page will automatically refresh every two minutes.

Flight plan parsing failed; only flown route is shown


Map Options




Map Legend


Flown Route
Filed Route
Departure Airport
Arrival Airport
Navaid (VOR, NDB)
Fix

Horizontal Profiles

Position Reports

Time Latitude Longitude Heading Altitude Ground
Speed
22-Nov-20 20:00 37.709309 -122.216161 307 12ft 0kts
22-Nov-20 20:01 37.709309 -122.216161 307 12ft 0kts
22-Nov-20 20:02 37.709309 -122.216161 307 12ft 0kts
22-Nov-20 20:03 37.709309 -122.216161 307 12ft 0kts
22-Nov-20 20:04 37.709309 -122.216161 307 12ft 0kts
22-Nov-20 20:05 37.709309 -122.216161 307 12ft 0kts
22-Nov-20 20:06 37.709309 -122.216161 307 12ft 0kts
22-Nov-20 20:07 37.709309 -122.216161 307 12ft 0kts
22-Nov-20 20:08 37.709309 -122.216161 307 12ft 0kts
22-Nov-20 20:09 37.709309 -122.216161 307 12ft 0kts
22-Nov-20 20:10 37.709309 -122.216161 307 12ft 0kts
22-Nov-20 20:11 37.709352 -122.216230 308 12ft 0kts
22-Nov-20 20:12 37.709493 -122.216354 2 12ft 1kts
22-Nov-20 20:13 37.709353 -122.216031 131 12ft 4kts
22-Nov-20 20:14 37.707642 -122.217117 218 12ft 9kts
22-Nov-20 20:15 37.705042 -122.215759 130 12ft 16kts
22-Nov-20 20:16 37.702494 -122.213568 193 12ft 2kts
22-Nov-20 20:17 37.702213 -122.213717 212 12ft 7kts
22-Nov-20 20:18 37.702116 -122.215137 314 12ft 0kts
22-Nov-20 20:19 37.719550 -122.241114 310 649ft 173kts
22-Nov-20 20:20 37.755764 -122.291001 310 3240ft 218kts
22-Nov-20 20:21 37.801908 -122.352989 330 6137ft 254kts
22-Nov-20 20:22 37.866250 -122.317986 47 9139ft 293kts
22-Nov-20 20:23 37.913371 -122.224908 54 11055ft 346kts
22-Nov-20 20:24 37.969317 -122.114880 54 12805ft 383kts
22-Nov-20 20:25 38.028718 -121.998581 54 14917ft 399kts
22-Nov-20 20:26 38.090510 -121.877202 55 16834ft 414kts
22-Nov-20 20:27 38.154451 -121.751011 55 18573ft 429kts
22-Nov-20 20:28 38.220134 -121.620897 55 20229ft 440kts
22-Nov-20 20:29 38.287199 -121.487455 55 21741ft 450kts
22-Nov-20 20:30 38.358653 -121.353410 49 23114ft 459kts
22-Nov-20 20:31 38.439264 -121.223421 50 24349ft 469kts
22-Nov-20 20:32 38.521122 -121.090808 50 25474ft 478kts
22-Nov-20 20:33 38.604613 -120.955011 51 26511ft 487kts
22-Nov-20 20:34 38.689468 -120.816409 51 27474ft 496kts
22-Nov-20 20:35 38.775372 -120.675485 51 28397ft 504kts
22-Nov-20 20:36 38.862563 -120.531815 51 29191ft 513kts
22-Nov-20 20:37 38.950292 -120.386637 52 30324ft 511kts
22-Nov-20 20:38 39.037426 -120.241778 52 31429ft 510kts
22-Nov-20 20:39 39.124524 -120.096302 52 32421ft 509kts
22-Nov-20 20:40 39.211364 -119.950590 53 33166ft 511kts
22-Nov-20 20:41 39.298261 -119.804125 53 33983ft 511kts
22-Nov-20 20:42 39.384486 -119.658139 52 34910ft 506kts
22-Nov-20 20:43 39.470039 -119.512577 52 35723ft 504kts
22-Nov-20 20:44 39.555013 -119.367350 52 36458ft 502kts
22-Nov-20 20:45 39.639659 -119.222032 52 36986ft 502kts
22-Nov-20 20:46 39.724298 -119.076064 52 37099ft 503kts
22-Nov-20 20:47 39.808777 -118.929695 52 37105ft 504kts
22-Nov-20 20:48 39.891217 -118.780514 61 37102ft 505kts
22-Nov-20 20:49 39.957907 -118.617276 62 37106ft 506kts
22-Nov-20 20:50 40.024263 -118.453892 62 37123ft 506kts
22-Nov-20 20:51 40.090225 -118.290550 63 37118ft 504kts
22-Nov-20 20:52 40.155785 -118.127305 63 37086ft 503kts
22-Nov-20 20:53 40.213425 -117.959667 75 37078ft 500kts
22-Nov-20 20:54 40.254416 -117.783882 75 37090ft 501kts
22-Nov-20 20:55 40.295263 -117.607634 75 37097ft 501kts
22-Nov-20 20:56 40.335745 -117.431534 75 37107ft 502kts
22-Nov-20 20:57 40.376143 -117.254488 75 37102ft 502kts
22-Nov-20 20:58 40.416209 -117.077511 75 37091ft 501kts
22-Nov-20 20:59 40.456026 -116.900193 75 37085ft 502kts
22-Nov-20 21:00 40.495838 -116.721420 75 37086ft 503kts
22-Nov-20 21:01 40.535307 -116.542955 75 37092ft 504kts
22-Nov-20 21:02 40.569643 -116.362162 86 37093ft 503kts
22-Nov-20 21:03 40.583952 -116.176887 87 37104ft 503kts
22-Nov-20 21:04 40.597941 -115.992332 87 37105ft 503kts
22-Nov-20 21:05 40.611680 -115.806948 87 37094ft 504kts
22-Nov-20 21:07 40.625110 -115.621693 87 37110ft 506kts
22-Nov-20 21:08 40.638267 -115.436046 87 37121ft 506kts
22-Nov-20 21:09 40.651137 -115.250177 87 37111ft 505kts
22-Nov-20 21:10 40.663703 -115.064330 87 37113ft 504kts
22-Nov-20 21:11 40.675914 -114.879214 87 37104ft 504kts
22-Nov-20 21:12 40.687854 -114.693907 87 36224ft 501kts
22-Nov-20 21:13 40.699382 -114.509983 87 35252ft 498kts
22-Nov-20 21:14 40.706574 -114.325023 89 32498ft 506kts
22-Nov-20 21:15 40.713356 -114.136377 88 29366ft 512kts
22-Nov-20 21:16 40.719856 -113.948314 88 26738ft 500kts
22-Nov-20 21:17 40.725790 -113.767743 88 24722ft 478kts
22-Nov-20 21:18 40.726036 -113.596915 90 24086ft 449kts
22-Nov-20 21:19 40.725634 -113.430210 90 24085ft 450kts
22-Nov-20 21:20 40.725028 -113.262603 91 24022ft 451kts
22-Nov-20 21:21 40.724187 -113.094445 91 21429ft 453kts
22-Nov-20 21:22 40.723162 -112.929530 91 19065ft 434kts
22-Nov-20 21:23 40.722065 -112.777019 92 16386ft 385kts
22-Nov-20 21:23 40.720998 -112.661788 92 15464ft 371kts
22-Nov-20 21:25 40.718970 -112.499580 94 14124ft 377kts
22-Nov-20 21:26 40.714552 -112.359925 94 12960ft 377kts
22-Nov-20 21:26 40.711673 -112.244865 90 12066ft 367kts
22-Nov-20 21:27 40.740793 -112.119408 34 11485ft 372kts
22-Nov-20 21:28 40.834199 -112.100706 351 11005ft 319kts
22-Nov-20 21:29 40.919028 -112.111587 352 10840ft 296kts
22-Nov-20 21:31 41.014073 -112.123051 354 9287ft 287kts
22-Nov-20 21:31 41.069721 -112.100714 66 8449ft 244kts
22-Nov-20 21:32 41.049701 -112.026930 159 8013ft 225kts
22-Nov-20 21:33 40.990027 -112.020594 176 7585ft 205kts
22-Nov-20 21:34 40.933736 -112.013867 174 6751ft 189kts
22-Nov-20 21:35 40.884289 -112.008170 174 5757ft 159kts
22-Nov-20 21:36 40.840375 -112.002666 175 4898ft 157kts
22-Nov-20 21:37 40.797268 -111.998078 174 4236ft 131kts
22-Nov-20 21:38 40.784201 -111.994972 133 4236ft 14kts
22-Nov-20 21:39 40.785297 -111.992210 359 4236ft 14kts
22-Nov-20 21:40 40.787204 -111.989690 84 4236ft 16kts
22-Nov-20 21:41 40.788343 -111.985819 72 4236ft 8kts
22-Nov-20 21:42 40.788447 -111.985382 72 4236ft 0kts
22-Nov-20 21:43 40.788447 -111.985382 72 4236ft 0kts

Navigation Log

Ident Type
Flight plan parsing failed, navigation log unavailable